createdAt,value
2023-03-24T00:00:38.423Z,99.90
2023-03-24T00:03:07.509Z,99.90
2023-03-24T00:05:35.959Z,99.90
2023-03-24T00:08:04.780Z,99.90
2023-03-24T00:10:34.666Z,99.90
2023-03-24T00:13:03.538Z,99.90
2023-03-24T00:15:31.827Z,99.90
2023-03-24T00:18:01.523Z,99.90
2023-03-24T00:20:29.929Z,99.90
2023-03-24T00:22:58.977Z,99.90
2023-03-24T00:25:33.948Z,99.90
2023-03-24T00:28:03.015Z,99.90
2023-03-24T00:30:31.633Z,99.90
2023-03-24T00:33:02.030Z,99.90
2023-03-24T00:35:30.629Z,99.90
2023-03-24T00:37:58.851Z,99.90
2023-03-24T00:40:27.884Z,99.90
2023-03-24T00:42:56.248Z,99.90
2023-03-24T00:45:24.554Z,99.90
2023-03-24T00:47:54.603Z,99.90
2023-03-24T00:50:27.201Z,99.90
2023-03-24T00:52:58.507Z,99.90
2023-03-24T00:55:28.774Z,99.90
2023-03-24T00:57:57.436Z,99.90
2023-03-24T01:00:51.351Z,99.90
2023-03-24T01:03:22.128Z,99.90
2023-03-24T01:05:53.738Z,99.90
2023-03-24T01:08:21.986Z,99.90
2023-03-24T01:10:53.407Z,99.90
2023-03-24T01:13:22.862Z,99.90
2023-03-24T01:15:52.089Z,99.90
2023-03-24T01:18:20.730Z,99.90
2023-03-24T01:20:51.353Z,99.90
2023-03-24T01:23:21.661Z,99.90
2023-03-24T01:25:50.659Z,99.90
2023-03-24T01:28:23.495Z,99.90
2023-03-24T01:30:51.992Z,99.90
2023-03-24T01:33:20.293Z,99.90
2023-03-24T01:35:48.608Z,99.90
2023-03-24T01:38:18.353Z,99.90
2023-03-24T01:40:48.405Z,99.90
2023-03-24T01:43:20.533Z,99.90
2023-03-24T01:46:03.089Z,99.90
2023-03-24T01:48:36.766Z,99.90
2023-03-24T01:51:10.963Z,99.90
2023-03-24T01:53:44.714Z,99.90
2023-03-24T01:56:14.227Z,99.90
2023-03-24T01:58:48.245Z,99.90
2023-03-24T02:01:17.653Z,99.90
2023-03-24T02:03:46.727Z,99.90
2023-03-24T02:06:16.545Z,99.90
2023-03-24T02:08:52.927Z,99.90
2023-03-24T02:11:21.547Z,99.90
2023-03-24T02:13:49.873Z,99.90
2023-03-24T02:16:28.342Z,99.90
2023-03-24T02:19:12.512Z,99.90
2023-03-24T02:22:04.041Z,99.90
2023-03-24T02:25:08.417Z,99.90
2023-03-24T02:27:56.318Z,99.90
2023-03-24T02:30:47.993Z,99.90
2023-03-24T02:33:49.088Z,99.90
2023-03-24T02:37:03.260Z,99.90
2023-03-24T02:40:08.063Z,99.90
2023-03-24T02:42:45.053Z,99.90
2023-03-24T02:45:24.522Z,99.90
2023-03-24T02:48:21.471Z,99.90
2023-03-24T02:50:55.814Z,99.90
2023-03-24T02:53:32.314Z,99.90
2023-03-24T02:56:10.569Z,99.90
2023-03-24T02:58:44.049Z,99.90
2023-03-24T03:01:16.212Z,99.90
2023-03-24T03:03:49.246Z,99.90
2023-03-24T03:06:22.144Z,99.90
2023-03-24T03:08:52.546Z,99.90
2023-03-24T03:11:22.387Z,99.90
2023-03-24T03:13:53.589Z,99.90
2023-03-24T03:16:38.495Z,99.90
2023-03-24T03:19:12.532Z,99.90
2023-03-24T03:21:43.950Z,99.90
2023-03-24T03:24:15.468Z,99.90
2023-03-24T03:26:48.965Z,99.90
2023-03-24T03:29:21.999Z,99.90
2023-03-24T03:31:59.260Z,99.90
2023-03-24T03:34:37.624Z,99.90
2023-03-24T03:37:25.826Z,99.90
2023-03-24T03:39:59.181Z,99.90
2023-03-24T03:42:29.286Z,99.90
2023-03-24T03:44:57.762Z,99.90
2023-03-24T03:47:26.518Z,99.90
2023-03-24T03:49:54.988Z,99.90
2023-03-24T03:52:23.480Z,99.90
2023-03-24T03:54:52.712Z,99.90
2023-03-24T03:57:21.555Z,99.90
2023-03-24T03:59:51.316Z,99.90
2023-03-24T04:02:52.655Z,99.90
2023-03-24T04:05:46.384Z,99.90
2023-03-24T04:08:26.807Z,99.90
2023-03-24T04:11:26.911Z,99.90
2023-03-24T04:14:09.117Z,99.90
2023-03-24T04:16:48.267Z,99.90
2023-03-24T04:19:33.377Z,99.90
2023-03-24T04:22:18.379Z,99.90
2023-03-24T04:24:54.692Z,99.90
2023-03-24T04:27:28.792Z,99.90
2023-03-24T04:30:07.706Z,99.90
2023-03-24T04:32:43.266Z,99.90
2023-03-24T04:35:20.734Z,99.90
2023-03-24T04:37:49.979Z,99.90
2023-03-24T04:40:20.249Z,99.90
2023-03-24T04:42:52.731Z,99.90
2023-03-24T04:45:26.030Z,99.90
2023-03-24T04:48:20.395Z,99.90
2023-03-24T04:50:55.056Z,99.90
2023-03-24T04:53:23.995Z,99.90
2023-03-24T04:56:05.874Z,99.90
2023-03-24T04:58:34.320Z,99.90
2023-03-24T05:01:03.334Z,99.90
2023-03-24T05:03:38.132Z,99.90
2023-03-24T05:06:07.731Z,99.90
2023-03-24T05:08:36.022Z,99.90
2023-03-24T05:11:04.407Z,99.90
2023-03-24T05:13:32.854Z,99.90
2023-03-24T05:16:01.378Z,99.90
2023-03-24T05:18:29.751Z,99.90
2023-03-24T05:21:00.226Z,99.90
2023-03-24T05:23:28.545Z,99.90
2023-03-24T05:25:56.842Z,99.90
2023-03-24T05:28:25.931Z,99.90
2023-03-24T05:30:54.342Z,99.90
2023-03-24T05:33:22.701Z,99.90
2023-03-24T05:35:51.144Z,99.90
2023-03-24T05:38:20.748Z,99.90
2023-03-24T05:40:49.002Z,99.90
2023-03-24T05:43:17.218Z,99.90
2023-03-24T05:45:45.874Z,99.90
2023-03-24T05:48:14.284Z,99.90
2023-03-24T05:50:42.809Z,99.90
2023-03-24T05:53:11.269Z,99.90
2023-03-24T05:55:41.770Z,99.90
2023-03-24T05:58:10.076Z,99.90
2023-03-24T06:00:38.287Z,99.90
2023-03-24T06:03:06.813Z,99.90
2023-03-24T06:05:35.080Z,99.90
2023-03-24T06:08:03.732Z,99.90
2023-03-24T06:10:32.122Z,99.90
2023-03-24T06:13:01.743Z,99.90
2023-03-24T06:15:30.859Z,99.90
2023-03-24T06:18:01.074Z,99.90
2023-03-24T06:20:34.370Z,99.90
2023-03-24T06:23:02.946Z,99.90
2023-03-24T06:25:31.317Z,99.90
2023-03-24T06:28:04.244Z,99.90
2023-03-24T06:30:32.752Z,99.90
2023-03-24T06:33:01.044Z,99.90
2023-03-24T06:35:53.828Z,99.90
2023-03-24T06:38:31.193Z,99.90
2023-03-24T06:41:01.819Z,99.90
2023-03-24T06:43:31.634Z,99.90
2023-03-24T06:46:00.654Z,99.90
2023-03-24T06:48:49.177Z,99.90
2023-03-24T06:51:17.774Z,99.90
2023-03-24T06:53:46.867Z,99.90
2023-03-24T06:56:17.240Z,99.90
2023-03-24T06:58:47.578Z,99.90
2023-03-24T07:01:16.281Z,99.90
2023-03-24T07:03:44.784Z,99.90
2023-03-24T07:06:13.393Z,99.90
2023-03-24T07:08:41.628Z,99.90
2023-03-24T07:11:10.224Z,99.90
2023-03-24T07:13:38.773Z,99.90
2023-03-24T07:16:09.363Z,99.90
2023-03-24T07:18:37.708Z,99.90
2023-03-24T07:21:06.594Z,99.90
2023-03-24T07:23:35.313Z,99.90
2023-03-24T07:26:03.570Z,99.90
2023-03-24T07:28:31.813Z,99.90
2023-03-24T07:31:04.499Z,99.90
2023-03-24T07:33:34.368Z,99.90
2023-03-24T07:36:11.747Z,99.90
2023-03-24T07:38:40.096Z,99.90
2023-03-24T07:41:08.312Z,99.90
2023-03-24T07:43:36.722Z,99.90
2023-03-24T07:46:05.203Z,99.90
2023-03-24T07:48:35.016Z,99.90
2023-03-24T07:51:03.289Z,99.90
2023-03-24T07:53:32.492Z,99.90
2023-03-24T07:56:00.839Z,99.90
2023-03-24T07:58:29.065Z,99.90
2023-03-24T08:00:57.261Z,99.90
2023-03-24T08:03:27.889Z,99.90
2023-03-24T08:05:57.659Z,99.90
2023-03-24T08:08:25.901Z,99.90
2023-03-24T08:10:54.085Z,99.90
2023-03-24T08:13:22.580Z,99.90
2023-03-24T08:15:51.434Z,99.90
2023-03-24T08:18:20.938Z,99.90
2023-03-24T08:20:49.520Z,99.90
2023-03-24T08:23:19.177Z,99.90
2023-03-24T08:25:47.858Z,99.90
2023-03-24T08:28:16.623Z,99.90
2023-03-24T08:30:45.159Z,99.90
2023-03-24T08:33:15.452Z,99.90
2023-03-24T08:35:46.120Z,99.90
2023-03-24T08:38:18.718Z,99.90
2023-03-24T08:40:49.078Z,99.90
2023-03-24T08:43:17.426Z,99.90
2023-03-24T08:46:11.214Z,99.90
2023-03-24T08:48:41.201Z,99.90
2023-03-24T08:51:14.031Z,99.90
2023-03-24T08:53:43.284Z,99.90
2023-03-24T08:56:12.986Z,99.90
2023-03-24T08:58:41.348Z,99.90
2023-03-24T09:01:10.382Z,99.90
2023-03-24T09:03:39.859Z,99.90
2023-03-24T09:06:08.794Z,99.90
2023-03-24T09:08:37.052Z,99.90
2023-03-24T09:11:05.401Z,99.90
2023-03-24T09:13:35.036Z,99.90
2023-03-24T09:16:05.031Z,99.90
2023-03-24T09:18:33.434Z,99.90
2023-03-24T09:21:02.364Z,99.90
2023-03-24T09:23:31.682Z,99.90
2023-03-24T09:26:00.408Z,99.90
2023-03-24T09:28:28.826Z,99.90
2023-03-24T09:31:03.476Z,99.90
2023-03-24T09:33:32.245Z,99.90
2023-03-24T09:36:02.411Z,99.90
2023-03-24T09:38:30.963Z,99.90
2023-03-24T09:41:03.069Z,99.90
2023-03-24T09:43:38.897Z,99.90
2023-03-24T09:46:14.678Z,99.90
2023-03-24T09:48:46.692Z,99.90
2023-03-24T09:51:21.616Z,99.20
2023-03-24T09:53:59.402Z,98.80
2023-03-24T09:56:29.761Z,99.10
2023-03-24T09:59:05.518Z,97.00
2023-03-24T10:01:36.350Z,94.20
2023-03-24T10:04:06.568Z,94.10
2023-03-24T10:06:41.973Z,94.00
2023-03-24T10:09:23.556Z,92.60
2023-03-24T10:12:03.573Z,90.70
2023-03-24T10:14:57.116Z,89.60
2023-03-24T10:17:32.378Z,85.90
2023-03-24T10:20:07.798Z,78.10
2023-03-24T10:22:40.951Z,80.80
2023-03-24T10:25:27.765Z,78.50
2023-03-24T10:28:00.547Z,81.80
2023-03-24T10:30:31.630Z,80.70
2023-03-24T10:33:01.363Z,77.60
2023-03-24T10:35:31.351Z,78.40
2023-03-24T10:38:02.060Z,77.10
2023-03-24T10:40:33.646Z,73.10
2023-03-24T10:43:06.931Z,68.00
2023-03-24T10:45:40.576Z,71.10
2023-03-24T10:48:10.398Z,72.40
2023-03-24T10:50:44.422Z,70.70
2023-03-24T10:54:04.298Z,67.80
2023-03-24T10:56:40.104Z,66.10
2023-03-24T10:59:41.564Z,64.50
2023-03-24T11:02:18.904Z,65.60
2023-03-24T11:04:53.674Z,66.80
2023-03-24T11:07:23.706Z,65.50
2023-03-24T11:10:01.977Z,65.20
2023-03-24T11:12:32.100Z,66.50
2023-03-24T11:15:21.289Z,66.50
2023-03-24T11:17:56.125Z,64.30
2023-03-24T11:20:32.361Z,61.70
2023-03-24T11:23:03.243Z,62.90
2023-03-24T11:25:34.859Z,61.80
2023-03-24T11:28:06.924Z,62.30
2023-03-24T11:30:37.016Z,62.20
2023-03-24T11:33:07.237Z,60.70
2023-03-24T11:35:42.585Z,61.00
2023-03-24T11:38:17.703Z,61.00
2023-03-24T11:40:58.245Z,61.50
2023-03-24T11:43:27.310Z,60.00
2023-03-24T11:46:02.178Z,59.00
2023-03-24T11:48:40.446Z,59.70
2023-03-24T11:51:12.963Z,59.70
2023-03-24T11:53:47.572Z,59.50
2023-03-24T11:56:24.777Z,59.80
2023-03-24T11:59:02.371Z,61.10
2023-03-24T12:01:36.892Z,57.00
2023-03-24T12:04:23.200Z,57.20
2023-03-24T12:07:12.876Z,55.10
2023-03-24T12:09:49.914Z,57.20
2023-03-24T12:12:30.007Z,57.40
2023-03-24T12:15:27.943Z,56.80
2023-03-24T12:18:11.794Z,57.90
2023-03-24T12:20:44.135Z,57.80
2023-03-24T12:23:18.998Z,58.70
2023-03-24T12:26:23.622Z,56.40
2023-03-24T12:29:03.250Z,57.40
2023-03-24T12:31:50.367Z,57.20
2023-03-24T12:34:36.427Z,56.60
2023-03-24T12:37:11.144Z,54.20
2023-03-24T12:39:48.756Z,53.60
2023-03-24T12:42:18.876Z,52.40
2023-03-24T12:45:14.399Z,53.10
2023-03-24T12:48:06.845Z,53.30
2023-03-24T12:50:48.317Z,53.00
2023-03-24T12:53:30.250Z,53.20
2023-03-24T12:56:27.898Z,52.50
2023-03-24T12:59:03.861Z,50.90
2023-03-24T13:01:36.431Z,50.80
2023-03-24T13:04:11.960Z,52.50
2023-03-24T13:06:45.800Z,51.20
2023-03-24T13:09:24.816Z,52.00
2023-03-24T13:12:00.328Z,51.30
2023-03-24T13:14:32.159Z,50.30
2023-03-24T13:17:07.119Z,50.90
2023-03-24T13:19:38.090Z,51.00
2023-03-24T13:22:11.619Z,50.90
2023-03-24T13:24:40.305Z,51.70
2023-03-24T13:27:20.490Z,51.10
2023-03-24T13:30:16.006Z,52.40
2023-03-24T13:32:48.053Z,53.80
2023-03-24T13:35:29.091Z,53.50
2023-03-24T13:38:03.904Z,53.40
2023-03-24T13:40:33.446Z,52.80
2023-03-24T13:43:12.124Z,52.80
2023-03-24T13:45:47.834Z,53.00
2023-03-24T13:48:30.829Z,52.90
2023-03-24T13:51:19.990Z,54.30
2023-03-24T13:53:53.901Z,53.50
2023-03-24T13:56:28.862Z,53.00
2023-03-24T13:59:26.822Z,52.60
2023-03-24T14:02:23.256Z,52.70
2023-03-24T14:05:06.244Z,53.10
2023-03-24T14:07:44.637Z,53.50
2023-03-24T14:10:50.498Z,52.10
2023-03-24T14:13:24.054Z,52.70
2023-03-24T14:16:55.675Z,53.20
2023-03-24T14:19:30.731Z,52.20
2023-03-24T14:22:09.851Z,51.10
2023-03-24T14:24:38.603Z,51.60
2023-03-24T14:27:50.653Z,50.90
2023-03-24T14:31:02.498Z,50.90
2023-03-24T14:33:32.345Z,51.80
2023-03-24T14:36:06.373Z,51.90
2023-03-24T14:38:38.784Z,52.00
2023-03-24T14:41:17.856Z,51.90
2023-03-24T14:43:58.300Z,51.90
2023-03-24T14:46:43.869Z,51.60
2023-03-24T14:49:23.315Z,51.70
2023-03-24T14:51:59.788Z,52.60
2023-03-24T14:54:35.006Z,52.10
2023-03-24T14:57:04.392Z,51.80
2023-03-24T14:59:39.754Z,51.90
2023-03-24T15:02:33.012Z,52.30
2023-03-24T15:05:23.080Z,52.60
2023-03-24T15:08:04.476Z,53.20
2023-03-24T15:11:01.239Z,52.60
2023-03-24T15:13:35.633Z,53.20
2023-03-24T15:16:07.668Z,53.80
2023-03-24T15:18:38.743Z,54.10
2023-03-24T15:21:26.472Z,53.50
2023-03-24T15:23:55.681Z,53.20
2023-03-24T15:26:26.624Z,53.60
2023-03-24T15:29:02.761Z,53.90
2023-03-24T15:31:31.498Z,53.90
2023-03-24T15:34:25.388Z,53.70
2023-03-24T15:36:57.449Z,54.80
2023-03-24T15:39:29.492Z,52.90
2023-03-24T15:41:57.872Z,52.40
2023-03-24T15:44:28.820Z,52.40
2023-03-24T15:46:58.795Z,53.20
2023-03-24T15:49:31.337Z,53.40
2023-03-24T15:52:02.560Z,53.50
2023-03-24T15:54:32.747Z,53.40
2023-03-24T15:57:02.882Z,53.00
2023-03-24T15:59:48.957Z,53.20
2023-03-24T16:02:27.952Z,53.10
2023-03-24T16:05:10.491Z,52.30
2023-03-24T16:07:43.097Z,52.40
2023-03-24T16:10:32.294Z,52.60
2023-03-24T16:13:18.971Z,53.90
2023-03-24T16:15:49.829Z,54.50
2023-03-24T16:18:20.659Z,55.50
2023-03-24T16:20:51.893Z,54.20
2023-03-24T16:23:21.583Z,55.60
2023-03-24T16:25:49.896Z,55.90
2023-03-24T16:28:21.503Z,56.70
2023-03-24T16:31:08.674Z,57.40
2023-03-24T16:33:37.011Z,59.30
2023-03-24T16:36:05.805Z,62.60
2023-03-24T16:38:35.490Z,63.30
2023-03-24T16:41:03.841Z,62.80
2023-03-24T16:43:34.238Z,62.30
2023-03-24T16:46:04.493Z,61.90
2023-03-24T16:48:33.925Z,62.70
2023-03-24T16:51:02.180Z,65.60
2023-03-24T16:53:30.471Z,67.70
2023-03-24T16:56:00.163Z,69.30
2023-03-24T16:58:30.336Z,71.40
2023-03-24T17:00:59.025Z,73.00
2023-03-24T17:03:29.739Z,75.30
2023-03-24T17:06:03.500Z,77.80
2023-03-24T17:08:31.843Z,81.00
2023-03-24T17:11:01.688Z,84.30
2023-03-24T17:13:29.901Z,84.90
2023-03-24T17:15:58.143Z,86.20
2023-03-24T17:18:26.509Z,90.50
2023-03-24T17:20:54.884Z,92.70
2023-03-24T17:23:26.650Z,94.80
2023-03-24T17:25:54.851Z,97.10
2023-03-24T17:28:24.459Z,99.20
2023-03-24T17:30:52.755Z,99.90
2023-03-24T17:33:20.979Z,99.90
2023-03-24T17:35:49.208Z,99.90
2023-03-24T17:38:17.731Z,99.90
2023-03-24T17:40:47.124Z,99.90
2023-03-24T17:43:15.569Z,99.90
2023-03-24T17:45:45.281Z,99.90
2023-03-24T17:48:13.471Z,99.90
2023-03-24T17:50:42.087Z,99.90
2023-03-24T17:53:13.596Z,99.90
2023-03-24T17:55:41.983Z,99.90
2023-03-24T17:58:10.590Z,99.90
2023-03-24T18:00:38.849Z,99.90
2023-03-24T18:03:08.572Z,99.90
2023-03-24T18:05:36.794Z,99.90
2023-03-24T18:08:05.323Z,99.90
2023-03-24T18:10:34.311Z,99.90
2023-03-24T18:13:28.836Z,99.90
2023-03-24T18:16:00.317Z,99.90
2023-03-24T18:18:33.752Z,99.90
2023-03-24T18:21:02.632Z,99.90
2023-03-24T18:23:31.983Z,99.90
2023-03-24T18:26:00.913Z,99.90
2023-03-24T18:28:54.551Z,99.90
2023-03-24T18:31:26.350Z,99.90
2023-03-24T18:33:56.323Z,99.90
2023-03-24T18:36:27.238Z,99.90
2023-03-24T18:38:59.794Z,99.90
2023-03-24T18:41:30.480Z,99.90
2023-03-24T18:44:00.846Z,99.90
2023-03-24T18:46:29.422Z,99.90
2023-03-24T18:48:59.249Z,99.90
2023-03-24T18:51:28.280Z,99.90
2023-03-24T18:53:56.490Z,99.90
2023-03-24T18:56:25.041Z,99.90
2023-03-24T18:58:53.427Z,99.90
2023-03-24T19:01:25.265Z,99.90
2023-03-24T19:03:54.122Z,99.90
2023-03-24T19:06:26.180Z,99.90
2023-03-24T19:08:54.768Z,99.90
2023-03-24T19:11:23.014Z,99.90
2023-03-24T19:13:51.930Z,99.90
2023-03-24T19:16:21.594Z,99.90
2023-03-24T19:18:50.722Z,99.90
2023-03-24T19:21:19.728Z,99.90
2023-03-24T19:23:51.209Z,99.90
2023-03-24T19:26:21.100Z,99.90
2023-03-24T19:28:49.384Z,99.90
2023-03-24T19:31:20.066Z,99.90
2023-03-24T19:33:51.570Z,99.90
2023-03-24T19:36:19.948Z,99.90
2023-03-24T19:38:49.596Z,99.90
2023-03-24T19:41:17.874Z,99.90
2023-03-24T19:43:46.405Z,99.90
2023-03-24T19:46:16.552Z,99.90
2023-03-24T19:48:44.844Z,99.90
2023-03-24T19:51:13.025Z,99.90
2023-03-24T19:53:41.497Z,99.90
2023-03-24T19:56:11.337Z,99.90
2023-03-24T19:58:39.573Z,99.90
2023-03-24T20:01:07.825Z,99.90
2023-03-24T20:03:36.645Z,99.90
2023-03-24T20:06:08.926Z,99.90
2023-03-24T20:08:37.932Z,99.90
2023-03-24T20:11:10.769Z,99.90
2023-03-24T20:13:39.189Z,99.90
2023-03-24T20:16:07.943Z,99.90
2023-03-24T20:18:36.443Z,99.90
2023-03-24T20:21:06.427Z,99.90
2023-03-24T20:23:34.698Z,99.90
2023-03-24T20:26:03.159Z,99.90
2023-03-24T20:28:32.964Z,99.90
2023-03-24T20:31:02.179Z,99.90
2023-03-24T20:33:30.963Z,99.90
2023-03-24T20:35:59.821Z,99.90
2023-03-24T20:38:28.354Z,99.90
2023-03-24T20:41:00.628Z,99.90
2023-03-24T20:43:29.283Z,99.90
2023-03-24T20:45:59.516Z,99.90
2023-03-24T20:48:28.214Z,99.90
2023-03-24T20:50:56.400Z,99.90
2023-03-24T20:53:25.016Z,99.90
2023-03-24T20:55:59.908Z,99.90
2023-03-24T20:58:28.670Z,99.90
2023-03-24T21:00:58.378Z,99.90
2023-03-24T21:03:27.317Z,99.90
2023-03-24T21:05:55.610Z,99.90
2023-03-24T21:08:23.829Z,99.90
2023-03-24T21:10:56.494Z,99.90
2023-03-24T21:13:24.740Z,99.90
2023-03-24T21:15:53.452Z,99.90
2023-03-24T21:18:23.081Z,99.90
2023-03-24T21:20:55.060Z,99.90
2023-03-24T21:23:23.274Z,99.90
2023-03-24T21:25:52.361Z,99.90
2023-03-24T21:28:20.600Z,99.90
2023-03-24T21:30:48.842Z,99.90
2023-03-24T21:33:17.370Z,99.90
2023-03-24T21:35:46.946Z,99.90
2023-03-24T21:38:16.012Z,99.90
2023-03-24T21:40:44.513Z,99.90
2023-03-24T21:43:14.803Z,99.90
2023-03-24T21:45:46.076Z,99.90
2023-03-24T21:48:16.223Z,99.90
2023-03-24T21:50:47.190Z,99.90
2023-03-24T21:53:16.025Z,99.90
2023-03-24T21:55:51.983Z,99.90
2023-03-24T21:58:20.999Z,99.90
2023-03-24T22:00:50.371Z,99.90
2023-03-24T22:03:21.902Z,99.90
2023-03-24T22:05:54.716Z,99.90
2023-03-24T22:08:26.752Z,99.90
2023-03-24T22:10:58.152Z,99.90
2023-03-24T22:13:26.638Z,99.90
2023-03-24T22:15:56.235Z,99.90
2023-03-24T22:18:24.823Z,99.90
2023-03-24T22:20:57.304Z,99.90
2023-03-24T22:23:25.598Z,99.90
2023-03-24T22:25:53.952Z,99.90
2023-03-24T22:28:22.214Z,99.90
2023-03-24T22:30:50.457Z,99.90
2023-03-24T22:33:18.798Z,99.90
2023-03-24T22:35:47.218Z,99.90
2023-03-24T22:38:17.397Z,99.90
2023-03-24T22:40:45.640Z,99.90
2023-03-24T22:43:13.953Z,99.90
2023-03-24T22:45:43.117Z,99.90
2023-03-24T22:48:12.886Z,99.90
2023-03-24T22:50:42.189Z,99.90
2023-03-24T22:53:11.990Z,99.90
2023-03-24T22:55:44.598Z,99.90
2023-03-24T22:58:14.171Z,99.90
2023-03-24T23:00:43.348Z,99.90
2023-03-24T23:03:12.143Z,99.90
2023-03-24T23:05:41.591Z,99.90
2023-03-24T23:08:10.557Z,99.90
2023-03-24T23:10:42.624Z,99.90
2023-03-24T23:13:11.527Z,99.90
2023-03-24T23:15:39.798Z,99.90
2023-03-24T23:18:08.403Z,99.90
2023-03-24T23:20:36.678Z,99.90
2023-03-24T23:23:06.695Z,99.90
2023-03-24T23:25:36.644Z,99.90
2023-03-24T23:28:09.061Z,99.90
2023-03-24T23:30:37.417Z,99.90
2023-03-24T23:33:05.958Z,99.90
2023-03-24T23:35:39.227Z,99.90
2023-03-24T23:38:07.660Z,99.90
2023-03-24T23:40:35.870Z,99.90
2023-03-24T23:43:04.095Z,99.90
2023-03-24T23:45:33.787Z,99.90
2023-03-24T23:48:02.076Z,99.90
2023-03-24T23:50:30.340Z,99.90
2023-03-24T23:52:59.198Z,99.90
2023-03-24T23:55:28.094Z,99.90
2023-03-24T23:58:21.385Z,99.90
